Time;durP1;ratioP1;P1;durP2;ratioP2;P2;SDS_P1;SDS_P2;PMS_P1;PMS_P2;Temp;Humidity;BMP_temperature;BMP_pressure;BME280_temperature;BME280_humidity;BME280_pressure;Samples;Min_cycle;Max_cycle;Signal;HPM_P1;HPM_P2
2022/01/09 00:00:36;;;;;;;16.60;7.53;;;;;;;;;;6263826;23;20162;-90
2022/01/09 00:03:42;;;;;;;19.70;7.33;;;;;;;;;;6262355;22;20178;-89
2022/01/09 00:06:49;;;;;;;19.80;7.43;;;;;;;;;;6263380;22;20209;-90
2022/01/09 00:09:57;;;;;;;17.40;6.90;;;;;;;;;;6261574;22;20170;-91
2022/01/09 00:13:02;;;;;;;18.63;6.67;;;;;;;;;;6262783;22;20258;-90
2022/01/09 00:16:07;;;;;;;17.97;6.70;;;;;;;;;;6263199;22;20163;-89
2022/01/09 00:19:13;;;;;;;15.43;7.03;;;;;;;;;;6261806;23;20280;-90
2022/01/09 00:22:25;;;;;;;17.43;6.93;;;;;;;;;;6261882;22;20179;-89
2022/01/09 00:25:31;;;;;;;15.70;6.87;;;;;;;;;;6261367;22;20621;-91
2022/01/09 00:28:39;;;;;;;18.80;6.77;;;;;;;;;;6261475;23;20253;-90
2022/01/09 00:31:43;;;;;;;19.87;7.57;;;;;;;;;;6262560;23;20166;-91
2022/01/09 00:34:48;;;;;;;17.83;7.47;;;;;;;;;;6259909;23;20190;-89
2022/01/09 00:37:54;;;;;;;17.40;7.27;;;;;;;;;;6261192;22;20182;-89
2022/01/09 00:41:00;;;;;;;18.87;7.43;;;;;;;;;;6261251;22;20178;-91
2022/01/09 00:44:06;;;;;;;15.90;6.80;;;;;;;;;;6260628;22;20167;-91
2022/01/09 00:47:11;;;;;;;17.03;6.77;;;;;;;;;;6258998;23;20174;-90
2022/01/09 00:50:16;;;;;;;16.93;7.53;;;;;;;;;;6259276;22;20694;-90
2022/01/09 00:53:23;;;;;;;15.47;7.33;;;;;;;;;;6259570;23;20680;-90
2022/01/09 00:56:31;;;;;;;19.77;7.53;;;;;;;;;;6261090;23;20213;-90
2022/01/09 00:59:36;;;;;;;18.23;7.10;;;;;;;;;;6260341;23;20201;-90
2022/01/09 01:02:41;;;;;;;16.50;6.20;;;;;;;;;;6260746;22;20162;-89
2022/01/09 01:05:47;;;;;;;14.23;6.43;;;;;;;;;;6262375;23;20213;-90
2022/01/09 01:08:52;;;;;;;15.00;6.70;;;;;;;;;;6259037;23;20166;-89
2022/01/09 01:11:59;;;;;;;12.67;6.27;;;;;;;;;;6261137;23;20170;-89
2022/01/09 01:15:05;;;;;;;13.67;6.23;;;;;;;;;;6259743;22;20166;-90
2022/01/09 01:18:11;;;;;;;13.43;6.50;;;;;;;;;;6262564;22;20178;-89
2022/01/09 01:21:16;;;;;;;14.80;6.13;;;;;;;;;;6264789;22;20170;-91
2022/01/09 01:24:21;;;;;;;15.43;6.80;;;;;;;;;;6262530;23;20163;-91
2022/01/09 01:27:29;;;;;;;15.47;6.30;;;;;;;;;;6263428;23;20174;-92
2022/01/09 01:30:35;;;;;;;13.07;6.00;;;;;;;;;;6264387;23;20170;-91
2022/01/09 01:33:41;;;;;;;11.80;5.40;;;;;;;;;;6263816;22;20167;-89
2022/01/09 01:36:46;;;;;;;11.87;5.67;;;;;;;;;;6262974;22;20167;-90
2022/01/09 01:39:52;;;;;;;15.83;6.13;;;;;;;;;;6262542;22;20185;-89
2022/01/09 01:42:58;;;;;;;13.70;5.27;;;;;;;;;;6260721;22;20189;-90
2022/01/09 01:46:04;;;;;;;13.73;6.40;;;;;;;;;;6260877;22;20178;-91
2022/01/09 01:49:11;;;;;;;13.03;5.50;;;;;;;;;;6262132;22;20163;-90
2022/01/09 01:52:17;;;;;;;18.07;5.87;;;;;;;;;;6262779;23;20175;-90
2022/01/09 01:55:23;;;;;;;14.00;5.93;;;;;;;;;;6260554;22;20162;-89
2022/01/09 01:58:34;;;;;;;13.73;6.37;;;;;;;;;;6264056;23;20190;-90
2022/01/09 02:01:39;;;;;;;16.07;6.53;;;;;;;;;;6261955;23;20200;-89
2022/01/09 02:04:47;;;;;;;17.27;6.23;;;;;;;;;;6261877;23;20158;-90
2022/01/09 02:07:52;;;;;;;14.33;6.60;;;;;;;;;;6260893;23;20163;-89
2022/01/09 02:10:57;;;;;;;14.27;6.20;;;;;;;;;;6260962;23;20178;-90
2022/01/09 02:14:04;;;;;;;13.10;6.53;;;;;;;;;;6260494;23;20170;-89
2022/01/09 02:17:09;;;;;;;14.37;5.63;;;;;;;;;;6261279;23;20289;-90
2022/01/09 02:20:16;;;;;;;14.67;6.47;;;;;;;;;;6260870;23;20174;-89
2022/01/09 02:23:21;;;;;;;15.60;5.87;;;;;;;;;;6260140;23;20167;-89
2022/01/09 02:26:26;;;;;;;16.83;6.83;;;;;;;;;;6261840;23;20170;-90
2022/01/09 02:29:32;;;;;;;16.00;6.70;;;;;;;;;;6262505;23;20173;-89
2022/01/09 02:32:37;;;;;;;15.50;6.83;;;;;;;;;;6262337;22;20209;-90
2022/01/09 02:35:44;;;;;;;14.37;6.47;;;;;;;;;;6260790;23;20193;-90
2022/01/09 02:38:49;;;;;;;13.43;6.60;;;;;;;;;;6260990;22;20209;-89
2022/01/09 02:41:55;;;;;;;12.80;6.33;;;;;;;;;;6260007;22;20626;-89
2022/01/09 02:45:00;;;;;;;17.80;6.07;;;;;;;;;;6260873;23;20222;-92
2022/01/09 02:48:08;;;;;;;20.47;7.37;;;;;;;;;;6261190;22;20166;-90
2022/01/09 02:51:17;;;;;;;16.27;6.97;;;;;;;;;;6261296;22;20210;-90
2022/01/09 02:57:47;;;;;;;15.37;6.97;;;;;;;;;;6262296;22;20370;-90
2022/01/09 03:00:52;;;;;;;15.83;6.93;;;;;;;;;;6263142;22;20215;-90
2022/01/09 03:03:57;;;;;;;16.00;6.83;;;;;;;;;;6260987;22;20170;-89
2022/01/09 03:07:04;;;;;;;14.37;5.73;;;;;;;;;;6262469;23;20209;-90
2022/01/09 03:10:11;;;;;;;14.77;6.63;;;;;;;;;;6261813;22;20770;-89
2022/01/09 03:13:15;;;;;;;14.63;6.33;;;;;;;;;;6262558;22;20149;-90
2022/01/09 03:16:20;;;;;;;14.93;6.27;;;;;;;;;;6261363;23;20672;-90
2022/01/09 03:19:26;;;;;;;15.67;6.40;;;;;;;;;;6264907;23;20186;-90
2022/01/09 03:22:33;;;;;;;15.27;6.50;;;;;;;;;;6262979;23;20233;-91
2022/01/09 03:25:38;;;;;;;12.30;6.00;;;;;;;;;;6261784;22;20232;-90
2022/01/09 03:28:43;;;;;;;14.87;6.97;;;;;;;;;;6264281;22;20158;-89
2022/01/09 03:31:49;;;;;;;14.10;6.43;;;;;;;;;;6263314;22;20181;-89
2022/01/09 03:34:55;;;;;;;16.17;7.13;;;;;;;;;;6261975;22;20194;-92
2022/01/09 03:38:02;;;;;;;16.83;6.83;;;;;;;;;;6262111;22;20154;-91
2022/01/09 03:41:07;;;;;;;13.00;5.87;;;;;;;;;;6262685;22;20221;-90
2022/01/09 03:44:12;;;;;;;14.00;6.30;;;;;;;;;;6261497;23;20167;-90
2022/01/09 03:47:17;;;;;;;17.93;6.67;;;;;;;;;;6262335;22;20223;-89
2022/01/09 03:50:22;;;;;;;16.33;6.50;;;;;;;;;;6262739;22;20186;-89
2022/01/09 03:53:30;;;;;;;14.63;7.00;;;;;;;;;;6257476;22;20182;-88
2022/01/09 03:56:35;;;;;;;15.20;6.53;;;;;;;;;;6257902;22;20170;-91
2022/01/09 03:59:41;;;;;;;16.30;6.73;;;;;;;;;;6260627;23;20245;-91
2022/01/09 04:02:46;;;;;;;16.23;6.43;;;;;;;;;;6261627;22;20171;-89
2022/01/09 04:05:51;;;;;;;15.57;6.33;;;;;;;;;;6261703;22;20190;-88
2022/01/09 04:09:06;;;;;;;15.50;6.43;;;;;;;;;;6260564;23;20247;-90
2022/01/09 04:12:15;;;;;;;13.93;6.27;;;;;;;;;;6259165;23;20234;-88
2022/01/09 04:15:20;;;;;;;18.40;6.90;;;;;;;;;;6260591;22;20162;-90
2022/01/09 04:18:27;;;;;;;13.30;6.80;;;;;;;;;;6260722;22;20167;-89
2022/01/09 04:21:33;;;;;;;17.10;6.93;;;;;;;;;;6261280;22;20155;-89
2022/01/09 04:24:40;;;;;;;15.90;6.67;;;;;;;;;;6262999;22;20206;-89
2022/01/09 04:27:46;;;;;;;13.83;6.87;;;;;;;;;;6263639;23;20225;-91
2022/01/09 04:30:51;;;;;;;14.00;6.20;;;;;;;;;;6262335;22;20158;-89
2022/01/09 04:33:57;;;;;;;15.27;6.67;;;;;;;;;;6263715;22;20166;-90
2022/01/09 04:37:03;;;;;;;17.13;7.10;;;;;;;;;;6245663;22;20170;-89
2022/01/09 04:40:14;;;;;;;15.53;6.90;;;;;;;;;;6244666;23;20201;-89
2022/01/09 04:43:20;;;;;;;17.43;6.87;;;;;;;;;;6243577;23;20170;-90
2022/01/09 04:46:33;;;;;;;15.53;7.43;;;;;;;;;;6242119;22;20352;-90
2022/01/09 04:49:41;;;;;;;15.63;6.43;;;;;;;;;;6242231;22;20252;-90
2022/01/09 04:52:47;;;;;;;17.83;7.33;;;;;;;;;;6243870;22;20193;-89
2022/01/09 04:55:53;;;;;;;15.97;7.17;;;;;;;;;;6244360;23;20258;-91
2022/01/09 04:58:59;;;;;;;17.63;7.13;;;;;;;;;;6245101;23;20657;-90
2022/01/09 05:02:07;;;;;;;14.63;6.73;;;;;;;;;;6242756;23;20162;-90
2022/01/09 05:05:12;;;;;;;19.70;7.63;;;;;;;;;;6243050;23;20171;-90
2022/01/09 05:08:19;;;;;;;14.23;6.80;;;;;;;;;;6243410;22;20166;-89
2022/01/09 05:11:25;;;;;;;16.47;7.20;;;;;;;;;;6243671;23;20637;-90
2022/01/09 05:14:31;;;;;;;18.40;6.83;;;;;;;;;;6244452;23;20622;-90
2022/01/09 05:17:36;;;;;;;17.37;7.70;;;;;;;;;;6243952;23;20241;-89
2022/01/09 05:20:41;;;;;;;15.77;7.23;;;;;;;;;;6244614;22;20599;-90
2022/01/09 05:23:47;;;;;;;14.77;6.73;;;;;;;;;;6243959;22;20206;-90
2022/01/09 05:26:54;;;;;;;17.93;7.37;;;;;;;;;;6244069;22;20669;-90
2022/01/09 05:29:59;;;;;;;17.03;7.10;;;;;;;;;;6243537;23;20190;-90
2022/01/09 05:33:04;;;;;;;15.70;6.90;;;;;;;;;;6245352;23;20174;-90
2022/01/09 05:36:09;;;;;;;14.77;6.77;;;;;;;;;;6258595;23;20638;-90
2022/01/09 05:39:15;;;;;;;12.17;5.70;;;;;;;;;;6261368;22;20175;-91
2022/01/09 05:42:21;;;;;;;12.97;6.30;;;;;;;;;;6262759;22;20198;-90
2022/01/09 05:45:27;;;;;;;14.17;5.93;;;;;;;;;;6262647;22;20163;-90
2022/01/09 05:48:32;;;;;;;14.00;6.10;;;;;;;;;;6262942;22;20186;-90
2022/01/09 05:51:37;;;;;;;13.47;5.17;;;;;;;;;;6263321;22;20163;-91
2022/01/09 05:54:43;;;;;;;11.63;5.27;;;;;;;;;;6261480;22;20150;-91
2022/01/09 05:57:49;;;;;;;14.37;4.87;;;;;;;;;;6263335;22;20158;-90
2022/01/09 06:00:54;;;;;;;7.93;3.90;;;;;;;;;;6261626;22;20268;-89
2022/01/09 06:03:59;;;;;;;11.03;4.30;;;;;;;;;;6263030;22;20515;-90
2022/01/09 06:07:05;;;;;;;9.50;4.30;;;;;;;;;;6261534;22;20170;-90
2022/01/09 06:10:11;;;;;;;7.00;3.50;;;;;;;;;;6259743;22;20323;-90
2022/01/09 06:13:17;;;;;;;9.90;3.60;;;;;;;;;;6258856;22;20206;-90
2022/01/09 06:16:24;;;;;;;8.80;3.80;;;;;;;;;;6259949;22;20229;-90
2022/01/09 06:19:29;;;;;;;8.33;3.93;;;;;;;;;;6261076;23;20192;-91
2022/01/09 06:22:34;;;;;;;6.90;3.30;;;;;;;;;;6261453;22;20222;-91
2022/01/09 06:25:39;;;;;;;7.13;3.63;;;;;;;;;;6263135;22;20150;-90
2022/01/09 06:28:45;;;;;;;7.50;3.43;;;;;;;;;;6264291;22;20194;-91
2022/01/09 06:31:50;;;;;;;7.30;3.90;;;;;;;;;;6260755;22;20218;-91
2022/01/09 06:34:55;;;;;;;20.27;8.70;;;;;;;;;;6259590;22;20253;-89
2022/01/09 06:38:00;;;;;;;17.00;7.63;;;;;;;;;;6262224;22;20162;-91
2022/01/09 06:41:05;;;;;;;17.67;7.40;;;;;;;;;;6261320;22;20242;-91
2022/01/09 06:44:12;;;;;;;6.43;3.40;;;;;;;;;;6260252;22;20225;-91
2022/01/09 06:47:18;;;;;;;6.07;3.33;;;;;;;;;;6260981;23;20234;-91
2022/01/09 06:50:24;;;;;;;7.40;3.27;;;;;;;;;;6260229;23;20221;-90
2022/01/09 06:53:29;;;;;;;7.83;3.60;;;;;;;;;;6260800;22;20158;-91
2022/01/09 06:56:35;;;;;;;5.97;3.00;;;;;;;;;;6259034;22;20213;-90
2022/01/09 06:59:44;;;;;;;8.90;3.47;;;;;;;;;;6259394;22;20313;-91
2022/01/09 07:02:49;;;;;;;10.30;3.60;;;;;;;;;;6258916;23;20167;-90
2022/01/09 07:05:55;;;;;;;6.20;3.20;;;;;;;;;;6258657;22;20150;-89
2022/01/09 07:09:00;;;;;;;7.87;3.57;;;;;;;;;;6259328;22;20162;-91
2022/01/09 07:12:07;;;;;;;8.90;3.90;;;;;;;;;;6259611;22;20174;-90
2022/01/09 07:15:15;;;;;;;10.63;4.30;;;;;;;;;;6261091;22;20166;-89
2022/01/09 07:18:21;;;;;;;6.97;4.43;;;;;;;;;;6264255;22;20154;-90
2022/01/09 07:21:26;;;;;;;8.80;4.37;;;;;;;;;;6260920;22;20260;-91
2022/01/09 07:24:31;;;;;;;8.97;4.70;;;;;;;;;;6259174;22;20185;-90
2022/01/09 07:27:36;;;;;;;11.20;3.80;;;;;;;;;;6259456;22;20174;-90
2022/01/09 07:30:43;;;;;;;8.77;4.37;;;;;;;;;;6260103;22;20218;-89
2022/01/09 07:33:48;;;;;;;13.00;6.17;;;;;;;;;;6260137;22;20301;-90
2022/01/09 07:36:53;;;;;;;9.20;4.00;;;;;;;;;;6258460;23;20163;-90
2022/01/09 07:39:59;;;;;;;7.17;3.30;;;;;;;;;;6258734;22;20182;-90
2022/01/09 07:43:05;;;;;;;7.77;3.27;;;;;;;;;;6259575;23;20151;-91
2022/01/09 07:46:11;;;;;;;6.23;3.43;;;;;;;;;;6260677;22;20170;-89
2022/01/09 07:49:17;;;;;;;8.87;3.40;;;;;;;;;;6259491;23;20218;-89
2022/01/09 07:52:22;;;;;;;11.47;4.10;;;;;;;;;;6259803;22;20219;-90
2022/01/09 07:55:27;;;;;;;7.87;3.77;;;;;;;;;;6261497;23;20167;-90
2022/01/09 07:58:32;;;;;;;8.20;3.83;;;;;;;;;;6263046;22;20206;-91
2022/01/09 08:01:42;;;;;;;9.97;4.40;;;;;;;;;;6262145;22;20167;-90
2022/01/09 08:04:47;;;;;;;8.70;3.80;;;;;;;;;;6265622;22;20166;-91
2022/01/09 08:07:53;;;;;;;12.07;4.40;;;;;;;;;;6264198;22;20231;-90
2022/01/09 08:10:59;;;;;;;8.77;4.13;;;;;;;;;;6264929;22;20167;-90
2022/01/09 08:14:12;;;;;;;9.33;3.40;;;;;;;;;;6267891;22;20154;-90
2022/01/09 08:17:19;;;;;;;6.83;3.10;;;;;;;;;;6267058;22;20190;-90
2022/01/09 08:20:24;;;;;;;5.80;3.10;;;;;;;;;;6263923;22;20194;-88
2022/01/09 08:23:30;;;;;;;12.63;4.60;;;;;;;;;;6262744;23;20273;-90
2022/01/09 08:26:35;;;;;;;6.27;3.40;;;;;;;;;;6263461;22;20170;-90
2022/01/09 08:29:40;;;;;;;8.17;3.80;;;;;;;;;;6264205;22;20199;-90
2022/01/09 08:32:48;;;;;;;8.03;3.83;;;;;;;;;;6264171;22;20170;-90
2022/01/09 08:35:55;;;;;;;8.27;3.53;;;;;;;;;;6263308;22;20237;-90
2022/01/09 08:39:02;;;;;;;8.77;4.57;;;;;;;;;;6264698;23;20219;-90
2022/01/09 08:42:08;;;;;;;10.20;5.13;;;;;;;;;;6262892;22;20178;-89
2022/01/09 08:45:13;;;;;;;11.63;4.27;;;;;;;;;;6262205;23;20154;-90
2022/01/09 08:48:20;;;;;;;12.10;4.43;;;;;;;;;;6260944;23;20167;-89
2022/01/09 08:51:25;;;;;;;9.93;6.07;;;;;;;;;;6263121;23;20603;-90
2022/01/09 08:54:30;;;;;;;11.27;5.23;;;;;;;;;;6262466;22;20253;-91
2022/01/09 08:57:36;;;;;;;11.47;4.80;;;;;;;;;;6261891;23;20246;-90
2022/01/09 09:00:42;;;;;;;9.10;3.97;;;;;;;;;;6263057;22;20242;-90
2022/01/09 09:03:52;;;;;;;12.47;5.03;;;;;;;;;;6262498;22;20161;-92
2022/01/09 09:06:57;;;;;;;11.27;5.03;;;;;;;;;;6264148;23;20246;-92
2022/01/09 09:10:04;;;;;;;15.40;5.70;;;;;;;;;;6263082;22;20165;-90
2022/01/09 09:13:10;;;;;;;22.77;7.57;;;;;;;;;;6262227;22;20163;-90
2022/01/09 09:16:16;;;;;;;15.77;6.43;;;;;;;;;;6263784;22;20150;-93
2022/01/09 09:19:23;;;;;;;18.03;8.33;;;;;;;;;;6261236;22;20150;-92
2022/01/09 09:22:28;;;;;;;12.17;5.33;;;;;;;;;;6263660;22;20169;-92
2022/01/09 09:25:34;;;;;;;20.33;7.30;;;;;;;;;;6263082;22;20162;-91
2022/01/09 09:28:40;;;;;;;13.87;5.17;;;;;;;;;;6262993;22;20162;-91
2022/01/09 09:31:46;;;;;;;11.70;5.50;;;;;;;;;;6261369;22;20249;-91
2022/01/09 09:34:52;;;;;;;12.97;5.23;;;;;;;;;;6261384;22;20186;-92
2022/01/09 09:37:58;;;;;;;13.67;5.40;;;;;;;;;;6263025;22;20169;-92
2022/01/09 09:41:03;;;;;;;10.57;5.40;;;;;;;;;;6262172;23;20234;-90
2022/01/09 09:44:09;;;;;;;16.07;5.53;;;;;;;;;;6261095;22;20166;-91
2022/01/09 09:47:15;;;;;;;13.90;5.80;;;;;;;;;;6260955;22;20169;-91
2022/01/09 09:50:22;;;;;;;15.63;6.20;;;;;;;;;;6261253;23;20173;-91
2022/01/09 09:53:27;;;;;;;14.07;5.77;;;;;;;;;;6263825;23;20194;-92
2022/01/09 09:56:32;;;;;;;12.43;5.63;;;;;;;;;;6260789;22;20178;-92
2022/01/09 09:59:39;;;;;;;11.10;5.27;;;;;;;;;;6263428;22;20154;-93
2022/01/09 10:02:45;;;;;;;11.60;5.67;;;;;;;;;;6263860;22;20250;-91
2022/01/09 10:05:53;;;;;;;14.37;5.87;;;;;;;;;;6265266;23;20183;-91
2022/01/09 10:08:58;;;;;;;15.07;4.83;;;;;;;;;;6263371;22;20190;-92
2022/01/09 10:12:04;;;;;;;9.50;4.43;;;;;;;;;;6263497;22;20175;-91
2022/01/09 10:18:44;;;;;;;8.57;4.53;;;;;;;;;;6262584;22;20227;-90
2022/01/09 10:21:55;;;;;;;14.17;5.57;;;;;;;;;;6263359;23;20193;-92
2022/01/09 10:25:19;;;;;;;10.90;5.47;;;;;;;;;;6263975;22;20286;-92
2022/01/09 10:28:25;;;;;;;11.60;5.37;;;;;;;;;;6264157;22;20166;-93
2022/01/09 10:31:30;;;;;;;11.47;5.50;;;;;;;;;;6263611;22;20174;-91
2022/01/09 10:34:36;;;;;;;14.83;6.87;;;;;;;;;;6262424;22;20237;-92
2022/01/09 10:37:43;;;;;;;17.70;8.07;;;;;;;;;;6262136;22;20179;-91
2022/01/09 10:40:52;;;;;;;19.80;7.40;;;;;;;;;;6260877;23;20194;-92
2022/01/09 10:43:57;;;;;;;14.67;6.43;;;;;;;;;;6261860;22;20165;-91
2022/01/09 10:47:04;;;;;;;14.40;5.80;;;;;;;;;;6261565;23;20162;-90
2022/01/09 10:50:10;;;;;;;14.87;5.83;;;;;;;;;;6260909;22;20199;-91
2022/01/09 10:53:19;;;;;;;11.63;4.93;;;;;;;;;;6262759;22;20186;-90
2022/01/09 10:56:26;;;;;;;12.63;5.50;;;;;;;;;;6258858;22;20171;-92
2022/01/09 10:59:31;;;;;;;10.10;5.07;;;;;;;;;;6260089;22;20166;-90
2022/01/09 11:02:40;;;;;;;11.57;3.43;;;;;;;;;;6263383;22;20165;-90
2022/01/09 11:05:46;;;;;;;6.83;2.23;;;;;;;;;;6260876;22;20167;-89
2022/01/09 11:08:54;;;;;;;2.47;1.10;;;;;;;;;;6261434;22;20177;-91
2022/01/09 11:12:03;;;;;;;8.70;1.13;;;;;;;;;;6261488;22;20186;-90
2022/01/09 11:15:09;;;;;;;2.30;0.90;;;;;;;;;;6259904;22;20170;-92
2022/01/09 11:18:15;;;;;;;2.43;0.80;;;;;;;;;;6260308;22;20188;-90
2022/01/09 11:21:21;;;;;;;3.20;1.20;;;;;;;;;;6260445;23;20239;-91
2022/01/09 11:24:56;;;;;;;4.90;1.33;;;;;;;;;;6258438;23;20158;-91
2022/01/09 11:28:04;;;;;;;1.53;1.00;;;;;;;;;;6260258;22;20146;-91
2022/01/09 11:31:12;;;;;;;4.03;1.30;;;;;;;;;;6260058;23;20186;-93
2022/01/09 11:34:20;;;;;;;2.13;1.07;;;;;;;;;;6261426;22;20166;-89
2022/01/09 11:37:31;;;;;;;5.63;1.03;;;;;;;;;;6261620;23;20171;-91
2022/01/09 11:40:39;;;;;;;1.50;0.80;;;;;;;;;;6262215;23;20198;-91
2022/01/09 11:43:57;;;;;;;2.20;1.20;;;;;;;;;;6263235;22;20586;-91
2022/01/09 11:47:12;;;;;;;2.70;0.93;;;;;;;;;;6262687;23;20232;-90
2022/01/09 11:50:18;;;;;;;1.13;0.67;;;;;;;;;;6263571;22;20167;-91
2022/01/09 11:53:24;;;;;;;5.23;0.90;;;;;;;;;;6263790;22;20232;-92
2022/01/09 11:56:52;;;;;;;0.77;0.60;;;;;;;;;;6262234;23;20170;-91
2022/01/09 11:59:58;;;;;;;2.07;1.13;;;;;;;;;;6261370;23;20165;-92
2022/01/09 12:03:23;;;;;;;1.40;0.83;;;;;;;;;;6262044;23;20158;-91
2022/01/09 12:06:41;;;;;;;2.30;0.90;;;;;;;;;;6261457;23;20167;-91
2022/01/09 12:09:47;;;;;;;3.10;0.90;;;;;;;;;;6263114;23;20163;-90
2022/01/09 12:12:58;;;;;;;1.93;1.10;;;;;;;;;;6263297;23;20480;-92
2022/01/09 12:16:04;;;;;;;3.70;1.73;;;;;;;;;;6260920;23;20201;-91
2022/01/09 12:19:09;;;;;;;4.77;1.73;;;;;;;;;;6260408;22;20214;-91
2022/01/09 12:22:15;;;;;;;2.77;1.50;;;;;;;;;;6260988;23;20182;-90
2022/01/09 12:25:34;;;;;;;2.30;1.30;;;;;;;;;;6261652;23;20163;-91
2022/01/09 12:28:46;;;;;;;1.93;1.10;;;;;;;;;;6260364;23;20178;-91
2022/01/09 12:31:55;;;;;;;5.37;1.80;;;;;;;;;;6260803;23;20162;-93
2022/01/09 12:35:24;;;;;;;6.10;2.10;;;;;;;;;;6261253;22;20185;-92
2022/01/09 12:38:30;;;;;;;2.23;1.00;;;;;;;;;;6260378;23;20641;-91
2022/01/09 12:41:39;;;;;;;4.87;1.97;;;;;;;;;;6262990;22;20185;-91
2022/01/09 12:44:56;;;;;;;4.27;2.20;;;;;;;;;;6261817;22;20247;-91
2022/01/09 12:48:03;;;;;;;2.90;1.40;;;;;;;;;;6261437;23;20175;-91
2022/01/09 12:51:12;;;;;;;3.40;1.10;;;;;;;;;;6262554;23;20175;-93
2022/01/09 12:54:17;;;;;;;2.90;0.90;;;;;;;;;;6261135;23;20167;-90
2022/01/09 12:57:22;;;;;;;1.03;0.90;;;;;;;;;;6261271;23;20616;-91
2022/01/09 13:00:30;;;;;;;2.00;1.13;;;;;;;;;;6260868;22;20170;-92
2022/01/09 13:03:35;;;;;;;2.00;1.00;;;;;;;;;;6260222;22;20170;-91
2022/01/09 13:06:40;;;;;;;3.30;1.03;;;;;;;;;;6260468;22;20162;-92
2022/01/09 13:09:46;;;;;;;2.33;1.00;;;;;;;;;;6260097;22;20285;-91
2022/01/09 13:13:04;;;;;;;4.53;1.27;;;;;;;;;;6259182;22;20183;-89
2022/01/09 13:16:14;;;;;;;4.77;1.20;;;;;;;;;;6260298;22;20238;-89
2022/01/09 13:19:20;;;;;;;2.00;1.00;;;;;;;;;;6260144;22;20286;-92
2022/01/09 13:22:26;;;;;;;2.83;1.33;;;;;;;;;;6263889;23;20202;-90
2022/01/09 13:25:42;;;;;;;2.40;1.00;;;;;;;;;;6262198;22;20170;-93
2022/01/09 13:28:48;;;;;;;1.63;1.00;;;;;;;;;;6262395;23;20178;-94
2022/01/09 13:31:55;;;;;;;6.27;1.30;;;;;;;;;;6264953;23;20658;-93
2022/01/09 13:35:00;;;;;;;1.87;1.00;;;;;;;;;;6262421;22;20255;-92
2022/01/09 13:38:05;;;;;;;4.67;1.10;;;;;;;;;;6262690;23;20162;-92
2022/01/09 13:41:10;;;;;;;8.27;2.53;;;;;;;;;;6264342;23;20194;-93
2022/01/09 13:44:19;;;;;;;15.10;5.13;;;;;;;;;;6264365;22;20195;-92
2022/01/09 13:47:27;;;;;;;13.83;3.83;;;;;;;;;;6262076;23;20159;-92
2022/01/09 13:50:34;;;;;;;7.27;1.73;;;;;;;;;;6261425;23;20179;-92
2022/01/09 13:53:42;;;;;;;5.67;1.70;;;;;;;;;;6262338;22;20219;-94
2022/01/09 13:56:59;;;;;;;7.50;1.67;;;;;;;;;;6261925;23;20290;-91
2022/01/09 14:00:11;;;;;;;5.80;1.60;;;;;;;;;;6261359;23;20158;-92
2022/01/09 14:03:27;;;;;;;5.27;1.90;;;;;;;;;;6262130;23;20159;-93
2022/01/09 14:06:33;;;;;;;12.20;2.40;;;;;;;;;;6262581;23;20162;-90
2022/01/09 14:09:39;;;;;;;5.53;1.67;;;;;;;;;;6263358;22;20166;-91
2022/01/09 14:12:46;;;;;;;4.67;1.50;;;;;;;;;;6261824;23;20170;-90
2022/01/09 14:15:54;;;;;;;7.03;2.37;;;;;;;;;;6263970;23;20172;-89
2022/01/09 14:19:14;;;;;;;8.07;1.50;;;;;;;;;;6264499;22;20690;-89
2022/01/09 14:22:23;;;;;;;4.67;1.70;;;;;;;;;;6261727;23;20189;-89
2022/01/09 14:25:29;;;;;;;3.60;1.20;;;;;;;;;;6261867;23;20161;-91
2022/01/09 14:28:35;;;;;;;5.77;1.40;;;;;;;;;;6262407;23;20207;-91
2022/01/09 14:31:41;;;;;;;8.27;1.90;;;;;;;;;;6263287;23;20166;-92
2022/01/09 14:34:46;;;;;;;8.50;1.60;;;;;;;;;;6259356;23;20628;-91
2022/01/09 14:37:55;;;;;;;7.30;2.07;;;;;;;;;;6262950;23;20223;-91
2022/01/09 14:41:01;;;;;;;7.03;1.73;;;;;;;;;;6260279;23;20170;-91
2022/01/09 14:44:08;;;;;;;5.90;1.83;;;;;;;;;;6260078;23;20201;-90
2022/01/09 14:47:13;;;;;;;8.00;1.87;;;;;;;;;;6260710;23;20209;-91
2022/01/09 14:50:19;;;;;;;4.80;1.60;;;;;;;;;;6259063;22;20162;-91
2022/01/09 14:53:25;;;;;;;5.87;1.57;;;;;;;;;;6259305;22;20179;-91
2022/01/09 14:56:30;;;;;;;6.67;1.50;;;;;;;;;;6259337;23;20157;-90
2022/01/09 14:59:35;;;;;;;5.43;1.77;;;;;;;;;;6263033;22;20170;-90
2022/01/09 15:02:40;;;;;;;13.70;3.30;;;;;;;;;;6261084;23;20194;-91
2022/01/09 15:05:48;;;;;;;13.40;3.20;;;;;;;;;;6264860;23;20234;-91
2022/01/09 15:08:55;;;;;;;7.47;2.10;;;;;;;;;;6262370;23;20213;-93
2022/01/09 15:12:01;;;;;;;6.33;2.40;;;;;;;;;;6261691;23;20170;-90
2022/01/09 15:15:07;;;;;;;11.30;1.73;;;;;;;;;;6258699;23;20173;-92
2022/01/09 15:18:15;;;;;;;9.43;2.77;;;;;;;;;;6259867;22;20205;-92
2022/01/09 15:21:21;;;;;;;9.60;2.87;;;;;;;;;;6262869;23;20174;-91
2022/01/09 15:24:27;;;;;;;7.67;2.80;;;;;;;;;;6259502;22;20171;-92
2022/01/09 15:27:32;;;;;;;8.47;2.20;;;;;;;;;;6258296;23;20162;-91
2022/01/09 15:30:37;;;;;;;9.80;2.83;;;;;;;;;;6257105;23;20170;-90
2022/01/09 15:33:43;;;;;;;9.13;3.73;;;;;;;;;;6256014;23;20297;-89
2022/01/09 15:36:48;;;;;;;17.50;4.57;;;;;;;;;;6258060;23;20175;-89
2022/01/09 15:39:55;;;;;;;14.93;4.37;;;;;;;;;;6258582;23;20174;-89
2022/01/09 15:43:06;;;;;;;16.47;4.60;;;;;;;;;;6257692;23;20195;-90
2022/01/09 15:46:11;;;;;;;13.40;3.50;;;;;;;;;;6260099;23;20166;-90
2022/01/09 15:49:17;;;;;;;11.63;3.30;;;;;;;;;;6258134;23;20234;-90
2022/01/09 15:52:22;;;;;;;8.03;2.63;;;;;;;;;;6259363;23;20155;-91
2022/01/09 15:55:30;;;;;;;12.90;3.30;;;;;;;;;;6259126;23;20166;-90
2022/01/09 15:58:35;;;;;;;7.70;2.23;;;;;;;;;;6259131;23;20175;-91
2022/01/09 16:01:41;;;;;;;17.10;3.07;;;;;;;;;;6258953;23;20238;-90
2022/01/09 16:04:46;;;;;;;14.77;3.37;;;;;;;;;;6262233;23;20174;-91
2022/01/09 16:07:51;;;;;;;26.07;4.70;;;;;;;;;;6258789;23;20633;-91
2022/01/09 16:10:58;;;;;;;14.87;4.17;;;;;;;;;;6259156;23;20190;-90
2022/01/09 16:14:02;;;;;;;19.97;5.60;;;;;;;;;;6260226;22;20174;-90
2022/01/09 16:17:08;;;;;;;26.17;6.20;;;;;;;;;;6260702;23;20178;-89
2022/01/09 16:23:34;;;;;;;24.93;6.17;;;;;;;;;;6113280;23;20225;-89
2022/01/09 16:26:40;;;;;;;52.57;14.03;;;;;;;;;;6111243;23;20257;-89
2022/01/09 16:29:45;;;;;;;31.60;8.87;;;;;;;;;;6093496;23;20169;-89
2022/01/09 16:32:50;;;;;;;16.93;5.77;;;;;;;;;;6093043;23;20174;-90
2022/01/09 16:35:56;;;;;;;30.90;11.03;;;;;;;;;;6111073;23;20166;-89
2022/01/09 16:39:02;;;;;;;16.37;5.70;;;;;;;;;;6094540;23;20210;-88
2022/01/09 16:42:09;;;;;;;16.23;5.67;;;;;;;;;;6093713;23;20198;-88
2022/01/09 16:45:14;;;;;;;14.97;4.30;;;;;;;;;;6114156;23;20245;-89
2022/01/09 16:48:23;;;;;;;18.87;5.90;;;;;;;;;;6113328;23;20614;-89
2022/01/09 16:51:28;;;;;;;8.10;2.97;;;;;;;;;;6110748;23;20480;-89
2022/01/09 16:54:34;;;;;;;14.33;3.73;;;;;;;;;;6111320;23;20170;-89
2022/01/09 16:57:41;;;;;;;7.17;2.60;;;;;;;;;;6091424;23;20193;-88
2022/01/09 17:00:46;;;;;;;8.40;2.87;;;;;;;;;;6110097;23;20190;-90
2022/01/09 17:03:51;;;;;;;12.70;2.80;;;;;;;;;;6109807;23;20323;-90
2022/01/09 17:06:58;;;;;;;14.40;3.53;;;;;;;;;;6093499;23;20218;-89
2022/01/09 17:10:05;;;;;;;12.00;3.33;;;;;;;;;;6110267;23;20174;-89
2022/01/09 17:13:17;;;;;;;102.70;27.80;;;;;;;;;;6110674;23;20165;-88
2022/01/09 17:16:22;;;;;;;10.53;4.10;;;;;;;;;;6112957;23;20257;-89
2022/01/09 17:19:27;;;;;;;13.37;3.90;;;;;;;;;;6092573;23;20278;-89
2022/01/09 17:22:33;;;;;;;18.20;7.37;;;;;;;;;;6114342;23;20213;-88
2022/01/09 17:25:39;;;;;;;15.63;4.70;;;;;;;;;;6111378;23;20178;-89
2022/01/09 17:28:45;;;;;;;20.40;6.80;;;;;;;;;;6095174;23;20178;-90
2022/01/09 17:31:51;;;;;;;29.20;8.73;;;;;;;;;;6093519;23;20253;-89
2022/01/09 17:34:57;;;;;;;23.50;6.93;;;;;;;;;;6093552;23;20202;-91
2022/01/09 17:38:02;;;;;;;13.77;5.33;;;;;;;;;;6094996;23;20489;-91
2022/01/09 17:41:08;;;;;;;45.87;14.63;;;;;;;;;;6108674;23;20181;-90
2022/01/09 17:44:15;;;;;;;11.97;4.20;;;;;;;;;;6110038;23;20153;-89
2022/01/09 17:47:32;;;;;;;10.23;4.27;;;;;;;;;;6108416;23;20694;-90
2022/01/09 17:50:39;;;;;;;15.90;5.63;;;;;;;;;;6110751;23;20178;-90
2022/01/09 17:53:44;;;;;;;14.87;4.93;;;;;;;;;;6092758;23;20618;-90
2022/01/09 17:56:51;;;;;;;18.13;5.13;;;;;;;;;;6108636;23;20565;-90
2022/01/09 17:59:57;;;;;;;26.77;8.87;;;;;;;;;;6093401;23;20173;-90
2022/01/09 18:03:02;;;;;;;29.70;9.67;;;;;;;;;;6111693;23;20201;-90
2022/01/09 18:06:07;;;;;;;25.30;9.40;;;;;;;;;;6092844;23;20174;-91
2022/01/09 18:09:15;;;;;;;22.17;7.73;;;;;;;;;;6110914;23;20181;-91
2022/01/09 18:12:21;;;;;;;25.30;9.63;;;;;;;;;;6094085;23;20158;-91
2022/01/09 18:15:29;;;;;;;25.60;8.03;;;;;;;;;;6096992;23;20162;-91
2022/01/09 18:18:35;;;;;;;34.10;10.67;;;;;;;;;;6100834;23;20296;-90
2022/01/09 18:21:40;;;;;;;29.30;10.00;;;;;;;;;;6113021;23;20221;-91
2022/01/09 18:24:45;;;;;;;15.80;6.30;;;;;;;;;;6093853;23;20170;-91
2022/01/09 18:27:54;;;;;;;23.93;7.10;;;;;;;;;;6115075;23;20493;-90
2022/01/09 18:31:01;;;;;;;14.37;5.00;;;;;;;;;;6096025;23;20185;-91
2022/01/09 18:34:07;;;;;;;13.63;5.43;;;;;;;;;;6097653;23;20170;-91
2022/01/09 18:37:18;;;;;;;17.13;6.33;;;;;;;;;;6099085;23;20169;-91